الصفحة الرئيسية
METAR-TAF:

METAR-TAF

مطار :

مطار تطوان سانية الرمل

تطوان, المغرب

دائرة عرض: 35-35N, خط طول: 005-20W, ارتفاع: 10 متر

مراقبة الطقس الحالي

تاريخ ووقت الإصدار 1ساعة و 6 دقيقة قبل الساعة 08:00UTC
ريح 14 عقدة من الشرق, الاتجاه يتراوح بين الشرق/الشمال الشرقي و الشرق/الجنوب الشرقي
درجة الحرارة 16°درجة مئوية
الرطوبة 82%
ضغط 1013 hPa
الرؤية 10 كم أو أكثر
غيوم متفرقة على ارتفاع 1000 قدم
غيوم مفككة على ارتفاع 2000 قدم

METAR: GMTN 040800Z 08014KT 060V120 9999 SCT010 BKN020 16/13 Q1013 NOSIG

زمن: 10:06 (09:06 UTC)


TAF: مفقودة

أرصاد الطقس والتوقعات من أكثر من 4000 مطار (تقارير الطقس للمطار METAR والتنبؤ بالطقس بالمطارTAF).

المحطات المتاحة هي النقط الصفراء والحمراء على الخريطة.

حرك المؤشر فوق النقطة لمعرفة اسم المحطة.

ثم انقر لمعرفة أرصاد وتوقعات الطقس.

لتغيير الخارطة: اضغط على الأزرار الخضراء مع رمز الصليب الأسود للتكبير. على الزر الأخضر مع شرطة للتصغير، أو على الأسهم الخضراء للخرائط المجاورة.


METAR-TAF: